createdAt,value
2022-12-01T00:01:20.913Z,95595.60
2022-12-01T00:03:47.977Z,95595.20
2022-12-01T00:06:18.177Z,95586.40
2022-12-01T00:09:06.338Z,95594.80
2022-12-01T00:11:35.164Z,95586.60
2022-12-01T00:14:03.056Z,95579.60
2022-12-01T00:16:30.614Z,95575.80
2022-12-01T00:18:57.366Z,95580.80
2022-12-01T00:21:26.284Z,95571.00
2022-12-01T00:23:55.947Z,95572.20
2022-12-01T00:26:24.450Z,95572.80
2022-12-01T00:28:54.407Z,95574.40
2022-12-01T00:31:22.497Z,95570.80
2022-12-01T00:33:49.607Z,95569.80
2022-12-01T00:36:16.275Z,95563.20
2022-12-01T00:38:42.953Z,95566.40
2022-12-01T00:41:09.660Z,95571.80
2022-12-01T00:43:36.335Z,95570.60
2022-12-01T00:46:03.757Z,95568.80
2022-12-01T00:48:30.379Z,95570.40
2022-12-01T00:50:57.003Z,95570.20
2022-12-01T00:53:24.719Z,95569.80
2022-12-01T00:55:53.894Z,95558.20
2022-12-01T00:58:21.804Z,95565.20
2022-12-01T01:00:48.915Z,95564.40
2022-12-01T01:03:15.904Z,95572.00
2022-12-01T01:05:43.880Z,95570.80
2022-12-01T01:08:14.821Z,95578.40
2022-12-01T01:10:44.877Z,95578.20
2022-12-01T01:13:12.914Z,95585.00
2022-12-01T01:15:40.668Z,95583.80
2022-12-01T01:18:09.743Z,95587.20
2022-12-01T01:20:36.421Z,95584.00
2022-12-01T01:23:03.751Z,95587.80
2022-12-01T01:25:32.560Z,95583.80
2022-12-01T01:27:59.253Z,95581.80
2022-12-01T01:30:26.006Z,95576.00
2022-12-01T01:32:52.738Z,95573.00
2022-12-01T01:35:19.371Z,95571.40
2022-12-01T01:37:46.086Z,95572.40
2022-12-01T01:40:12.622Z,95573.60
2022-12-01T01:42:39.272Z,95583.40
2022-12-01T01:45:26.089Z,95579.00
2022-12-01T01:47:54.565Z,95582.60
2022-12-01T01:50:26.026Z,95583.20
2022-12-01T01:53:01.553Z,95578.00
2022-12-01T01:55:30.633Z,95574.20
2022-12-01T01:57:57.525Z,95576.20
2022-12-01T02:00:24.224Z,95572.60
2022-12-01T02:02:52.256Z,95581.20
2022-12-01T02:05:28.475Z,95574.80
2022-12-01T02:07:58.747Z,95570.80
2022-12-01T02:11:12.685Z,95578.60
2022-12-01T02:13:48.248Z,95563.00
2022-12-01T02:16:45.184Z,95549.80
2022-12-01T02:19:36.826Z,95561.00
2022-12-01T02:22:23.506Z,95558.40
2022-12-01T02:25:12.961Z,95568.60
2022-12-01T02:27:53.591Z,95563.80
2022-12-01T02:30:41.657Z,95560.80
2022-12-01T02:33:20.569Z,95562.60
2022-12-01T02:36:29.364Z,95561.80
2022-12-01T02:39:29.873Z,95559.80
2022-12-01T02:42:05.992Z,95558.60
2022-12-01T02:44:40.103Z,95558.00
2022-12-01T02:47:16.127Z,95558.40
2022-12-01T02:49:51.150Z,95556.00
2022-12-01T02:52:19.757Z,95554.60
2022-12-01T02:54:48.424Z,95552.20
2022-12-01T02:57:16.750Z,95549.20
2022-12-01T02:59:51.000Z,95542.60
2022-12-01T03:02:49.447Z,95548.40
2022-12-01T03:05:45.468Z,95549.80
2022-12-01T03:09:08.212Z,95546.80
2022-12-01T03:11:46.626Z,95540.00
2022-12-01T03:14:45.152Z,95540.40
2022-12-01T03:17:18.966Z,95545.60
2022-12-01T03:19:57.514Z,95543.80
2022-12-01T03:22:33.386Z,95543.00
2022-12-01T03:25:03.988Z,95547.20
2022-12-01T03:27:35.801Z,95544.60
2022-12-01T03:30:04.433Z,95542.80
2022-12-01T03:32:38.646Z,95535.40
2022-12-01T03:35:16.235Z,95533.20
2022-12-01T03:38:07.888Z,95538.00
2022-12-01T03:40:37.196Z,95537.20
2022-12-01T03:43:09.908Z,95542.20
2022-12-01T03:46:10.688Z,95549.20
2022-12-01T03:48:39.658Z,95549.40
2022-12-01T03:51:15.251Z,95547.20
2022-12-01T03:53:47.939Z,95546.80
2022-12-01T03:56:19.210Z,95554.60
2022-12-01T03:58:49.430Z,95550.60
2022-12-01T04:01:16.085Z,95549.40
2022-12-01T04:03:46.810Z,95547.80
2022-12-01T04:06:14.154Z,95547.80
2022-12-01T04:08:41.220Z,95547.40
2022-12-01T04:11:32.186Z,95549.00
2022-12-01T04:13:59.614Z,95548.40
2022-12-01T04:16:26.289Z,95549.00
2022-12-01T04:18:53.009Z,95549.20
2022-12-01T04:21:19.644Z,95553.40
2022-12-01T04:24:01.588Z,95554.40
2022-12-01T04:26:36.447Z,95549.60
2022-12-01T04:29:08.568Z,95550.20
2022-12-01T04:31:35.875Z,95550.00
2022-12-01T04:34:02.792Z,95545.00
2022-12-01T04:36:35.492Z,95545.80
2022-12-01T04:39:03.312Z,95547.20
2022-12-01T04:41:29.989Z,95544.80
2022-12-01T04:43:56.688Z,95546.60
2022-12-01T04:46:24.472Z,95542.80
2022-12-01T04:48:51.666Z,95542.00
2022-12-01T04:51:18.539Z,95541.80
2022-12-01T04:53:45.127Z,95539.80
2022-12-01T04:56:11.835Z,95540.00
2022-12-01T04:58:38.561Z,95541.20
2022-12-01T05:01:09.957Z,95546.80
2022-12-01T05:03:43.172Z,95544.20
2022-12-01T05:06:13.998Z,95551.60
2022-12-01T05:08:41.579Z,95548.60
2022-12-01T05:11:11.380Z,95549.80
2022-12-01T05:13:40.869Z,95548.40
2022-12-01T05:16:14.269Z,95550.80
2022-12-01T05:18:41.672Z,95555.00
2022-12-01T05:21:11.178Z,95558.00
2022-12-01T05:23:39.238Z,95560.80
2022-12-01T05:26:09.006Z,95555.40
2022-12-01T05:28:36.284Z,95554.80
2022-12-01T05:31:03.432Z,95558.20
2022-12-01T05:33:30.482Z,95556.20
2022-12-01T05:35:57.220Z,95554.40
2022-12-01T05:38:23.930Z,95549.20
2022-12-01T05:40:52.907Z,95548.80
2022-12-01T05:43:29.105Z,95554.60
2022-12-01T05:45:57.825Z,95549.80
2022-12-01T05:48:25.103Z,95549.40
2022-12-01T05:50:51.983Z,95552.40
2022-12-01T05:53:19.761Z,95553.20
2022-12-01T05:55:46.644Z,95553.40
2022-12-01T05:58:13.360Z,95551.20
2022-12-01T06:00:45.699Z,95548.60
2022-12-01T06:03:14.093Z,95553.60
2022-12-01T06:05:41.068Z,95553.80
2022-12-01T06:08:08.197Z,95556.80
2022-12-01T06:10:35.147Z,95562.20
2022-12-01T06:13:01.726Z,95562.60
2022-12-01T06:15:28.425Z,95559.60
2022-12-01T06:17:55.177Z,95558.80
2022-12-01T06:20:23.508Z,95554.20
2022-12-01T06:22:50.244Z,95558.40
2022-12-01T06:25:17.338Z,95561.00
2022-12-01T06:27:44.094Z,95563.20
2022-12-01T06:30:11.049Z,95569.00
2022-12-01T06:32:38.236Z,95568.40
2022-12-01T06:35:05.527Z,95572.20
2022-12-01T06:37:32.777Z,95574.60
2022-12-01T06:39:59.480Z,95575.20
2022-12-01T06:42:30.596Z,95576.60
2022-12-01T06:44:57.305Z,95579.40
2022-12-01T06:47:23.899Z,95578.60
2022-12-01T06:49:50.932Z,95584.20
2022-12-01T06:52:18.076Z,95582.80
2022-12-01T06:54:44.781Z,95580.40
2022-12-01T06:57:11.473Z,95583.20
2022-12-01T06:59:38.503Z,95586.40
2022-12-01T07:02:05.114Z,95586.20
2022-12-01T07:04:31.829Z,95581.60
2022-12-01T07:06:58.423Z,95581.60
2022-12-01T07:09:24.984Z,95585.40
2022-12-01T07:11:51.859Z,95585.20
2022-12-01T07:14:25.135Z,95585.80
2022-12-01T07:16:51.928Z,95580.20
2022-12-01T07:19:18.873Z,95576.40
2022-12-01T07:21:45.774Z,95581.20
2022-12-01T07:24:12.586Z,95580.60
2022-12-01T07:26:41.221Z,95579.60
2022-12-01T07:29:09.320Z,95582.80
2022-12-01T07:31:37.799Z,95586.00
2022-12-01T07:34:05.395Z,95585.40
2022-12-01T07:36:32.287Z,95585.80
2022-12-01T07:38:58.898Z,95585.40
2022-12-01T07:41:25.626Z,95591.20
2022-12-01T07:43:52.237Z,95595.60
2022-12-01T07:46:24.032Z,95594.40
2022-12-01T07:48:53.022Z,95596.60
2022-12-01T07:51:21.165Z,95600.00
2022-12-01T07:53:49.845Z,95596.80
2022-12-01T07:56:18.050Z,95593.60
2022-12-01T07:58:44.809Z,95596.60
2022-12-01T08:01:14.111Z,95596.60
2022-12-01T08:03:41.507Z,95605.00
2022-12-01T08:06:09.507Z,95598.80
2022-12-01T08:08:39.510Z,95603.20
2022-12-01T08:11:23.459Z,95605.00
2022-12-01T08:13:52.456Z,95609.80
2022-12-01T08:16:23.008Z,95607.80
2022-12-01T08:18:50.761Z,95614.00
2022-12-01T08:21:20.990Z,95612.80
2022-12-01T08:23:52.069Z,95613.00
2022-12-01T08:26:19.978Z,95611.20
2022-12-01T08:28:47.024Z,95610.00
2022-12-01T08:31:19.726Z,95607.60
2022-12-01T08:33:48.309Z,95606.20
2022-12-01T08:36:15.666Z,95605.40
2022-12-01T08:38:49.861Z,95607.80
2022-12-01T08:41:17.331Z,95607.40
2022-12-01T08:44:08.855Z,95611.00
2022-12-01T08:46:35.622Z,95609.00
2022-12-01T08:49:06.822Z,95616.40
2022-12-01T08:51:33.734Z,95615.60
2022-12-01T08:54:00.925Z,95610.40
2022-12-01T08:56:37.903Z,95608.40
2022-12-01T08:59:05.254Z,95606.40
2022-12-01T09:01:33.177Z,95610.00
2022-12-01T09:04:05.878Z,95611.20
2022-12-01T09:06:39.683Z,95610.80
2022-12-01T09:09:08.532Z,95609.40
2022-12-01T09:11:35.261Z,95611.20
2022-12-01T09:14:01.927Z,95613.40
2022-12-01T09:16:28.729Z,95613.40
2022-12-01T09:18:55.696Z,95614.40
2022-12-01T09:21:26.783Z,95613.00
2022-12-01T09:23:54.210Z,95616.40
2022-12-01T09:26:21.045Z,95618.00
2022-12-01T09:29:00.854Z,95615.80
2022-12-01T09:31:28.125Z,95617.20
2022-12-01T09:34:01.205Z,95615.40
2022-12-01T09:36:30.649Z,95616.20
2022-12-01T09:38:58.139Z,95617.60
2022-12-01T09:41:35.457Z,95614.40
2022-12-01T09:44:14.477Z,95613.20
2022-12-01T09:46:56.000Z,95610.60
2022-12-01T09:49:29.318Z,95611.80
2022-12-01T09:51:55.978Z,95614.40
2022-12-01T09:54:22.694Z,95607.80
2022-12-01T09:56:55.791Z,95602.40
2022-12-01T09:59:27.415Z,95597.20
2022-12-01T10:02:00.157Z,95598.20
2022-12-01T10:04:41.331Z,95591.20
2022-12-01T10:07:25.792Z,95588.40
2022-12-01T10:09:59.710Z,95589.40
2022-12-01T10:12:32.487Z,95586.80
2022-12-01T10:15:08.190Z,95583.60
2022-12-01T10:18:05.507Z,95582.80
2022-12-01T10:20:45.811Z,95584.80
2022-12-01T10:23:30.720Z,95581.20
2022-12-01T10:26:08.752Z,95579.00
2022-12-01T10:29:09.896Z,95580.00
2022-12-01T10:31:53.298Z,95574.40
2022-12-01T10:34:38.111Z,95576.80
2022-12-01T10:37:04.873Z,95575.80
2022-12-01T10:39:38.908Z,95572.80
2022-12-01T10:42:37.680Z,95573.20
2022-12-01T10:45:14.385Z,95569.20
2022-12-01T10:48:08.469Z,95564.60
2022-12-01T10:50:36.361Z,95561.20
2022-12-01T10:53:04.050Z,95556.80
2022-12-01T10:55:36.319Z,95554.00
2022-12-01T10:58:14.229Z,95556.80
2022-12-01T11:00:59.476Z,95557.60
2022-12-01T11:03:35.021Z,95556.20
2022-12-01T11:06:05.999Z,95555.00
2022-12-01T11:08:51.932Z,95553.40
2022-12-01T11:11:35.993Z,95548.40
2022-12-01T11:14:16.709Z,95548.20
2022-12-01T11:16:47.237Z,95546.40
2022-12-01T11:19:23.552Z,95544.00
2022-12-01T11:22:01.293Z,95546.60
2022-12-01T11:24:44.097Z,95544.40
2022-12-01T11:27:21.539Z,95543.40
2022-12-01T11:29:56.588Z,95543.40
2022-12-01T11:32:28.215Z,95541.20
2022-12-01T11:35:06.392Z,95536.00
2022-12-01T11:37:39.503Z,95537.00
2022-12-01T11:40:16.744Z,95536.00
2022-12-01T11:42:50.363Z,95533.20
2022-12-01T11:45:40.309Z,95534.40
2022-12-01T11:48:12.915Z,95530.40
2022-12-01T11:50:43.928Z,95534.60
2022-12-01T11:53:42.029Z,95537.80
2022-12-01T11:56:16.767Z,95536.60
2022-12-01T11:58:46.261Z,95535.60
2022-12-01T12:01:41.177Z,95534.40
2022-12-01T12:04:17.932Z,95537.20
2022-12-01T12:07:31.669Z,95531.20
2022-12-01T12:10:14.157Z,95535.40
2022-12-01T12:13:27.106Z,95534.00
2022-12-01T12:16:46.832Z,95529.00
2022-12-01T12:20:09.624Z,95526.80
2022-12-01T12:23:19.522Z,95534.00
2022-12-01T12:26:52.876Z,95531.60
2022-12-01T12:29:51.585Z,95525.00
2022-12-01T12:32:53.099Z,95525.60
2022-12-01T12:35:42.478Z,95521.40
2022-12-01T12:38:42.682Z,95516.00
2022-12-01T12:41:34.043Z,95514.00
2022-12-01T12:44:13.554Z,95518.40
2022-12-01T12:47:25.991Z,95515.60
2022-12-01T12:50:24.421Z,95516.20
2022-12-01T12:52:59.410Z,95517.20
2022-12-01T12:55:53.145Z,95518.20
2022-12-01T12:58:29.682Z,95517.80
2022-12-01T13:01:03.985Z,95518.00
2022-12-01T13:04:00.921Z,95515.60
2022-12-01T13:06:59.974Z,95514.80
2022-12-01T13:09:35.395Z,95516.60
2022-12-01T13:12:31.017Z,95515.80
2022-12-01T13:15:18.002Z,95516.80
2022-12-01T13:18:13.766Z,95512.60
2022-12-01T13:20:41.050Z,95519.80
2022-12-01T13:23:16.084Z,95520.00
2022-12-01T13:25:51.320Z,95519.60
2022-12-01T13:28:29.266Z,95516.00
2022-12-01T13:31:05.815Z,95516.60
2022-12-01T13:33:35.228Z,95515.80
2022-12-01T13:39:20.020Z,95514.00
2022-12-01T13:41:59.087Z,95514.80
2022-12-01T13:44:38.896Z,95512.60
2022-12-01T13:47:11.600Z,95514.20
2022-12-01T13:49:45.654Z,95515.80
2022-12-01T13:52:21.425Z,95515.20
2022-12-01T13:55:10.002Z,95515.20
2022-12-01T13:58:00.012Z,95510.80
2022-12-01T14:00:34.501Z,95512.00
2022-12-01T14:03:16.685Z,95511.60
2022-12-01T14:05:53.452Z,95512.80
2022-12-01T14:08:33.561Z,95512.80
2022-12-01T14:11:06.014Z,95512.60
2022-12-01T14:14:19.985Z,95513.60
2022-12-01T14:16:55.555Z,95510.00
2022-12-01T14:19:44.000Z,95507.40
2022-12-01T14:22:32.781Z,95511.00
2022-12-01T14:25:00.361Z,95510.60
2022-12-01T14:27:56.497Z,95510.00
2022-12-01T14:30:47.659Z,95511.40
2022-12-01T14:33:39.410Z,95511.80
2022-12-01T14:36:25.088Z,95516.00
2022-12-01T14:38:57.685Z,95516.80
2022-12-01T14:41:50.910Z,95522.00
2022-12-01T14:44:40.876Z,95519.00
2022-12-01T14:47:29.297Z,95521.00
2022-12-01T14:50:02.189Z,95519.80
2022-12-01T14:52:28.760Z,95519.60
2022-12-01T14:54:59.063Z,95521.40
2022-12-01T14:57:34.981Z,95525.00
2022-12-01T15:00:10.995Z,95523.00
2022-12-01T15:03:03.389Z,95521.80
2022-12-01T15:05:32.472Z,95517.60
2022-12-01T15:08:40.861Z,95518.20
2022-12-01T15:11:11.123Z,95516.40
2022-12-01T15:13:49.878Z,95519.20
2022-12-01T15:16:20.784Z,95519.60
2022-12-01T15:18:47.812Z,95518.40
2022-12-01T15:21:34.197Z,95518.60
2022-12-01T15:24:04.752Z,95517.80
2022-12-01T15:26:35.844Z,95520.60
2022-12-01T15:29:21.800Z,95520.80
2022-12-01T15:31:54.787Z,95523.60
2022-12-01T15:34:36.529Z,95521.40
2022-12-01T15:37:07.195Z,95522.20
2022-12-01T15:39:47.186Z,95518.00
2022-12-01T15:42:30.438Z,95522.00
2022-12-01T15:45:20.087Z,95520.00
2022-12-01T15:47:50.658Z,95521.40
2022-12-01T15:50:41.267Z,95522.20
2022-12-01T15:53:29.448Z,95526.40
2022-12-01T15:55:59.251Z,95522.40
2022-12-01T15:58:35.029Z,95520.20
2022-12-01T16:01:09.021Z,95523.00
2022-12-01T16:03:59.451Z,95527.80
2022-12-01T16:06:31.005Z,95525.40
2022-12-01T16:09:02.290Z,95528.40
2022-12-01T16:11:29.179Z,95526.80
2022-12-01T16:14:00.296Z,95526.00
2022-12-01T16:16:49.363Z,95520.00
2022-12-01T16:19:23.565Z,95517.00
2022-12-01T16:21:54.739Z,95516.80
2022-12-01T16:24:36.137Z,95519.20
2022-12-01T16:27:08.003Z,95516.40
2022-12-01T16:29:49.989Z,95522.20
2022-12-01T16:32:31.214Z,95521.40
2022-12-01T16:34:58.223Z,95524.20
2022-12-01T16:37:27.183Z,95519.40
2022-12-01T16:39:53.965Z,95522.80
2022-12-01T16:42:21.996Z,95522.60
2022-12-01T16:44:51.375Z,95520.40
2022-12-01T16:47:25.924Z,95518.60
2022-12-01T16:49:53.045Z,95523.40
2022-12-01T16:55:38.384Z,95520.20
2022-12-01T16:58:05.775Z,95527.60
2022-12-01T17:00:32.889Z,95521.00
2022-12-01T17:03:00.391Z,95520.20
2022-12-01T17:05:27.852Z,95519.60
2022-12-01T17:07:56.612Z,95523.40
2022-12-01T17:10:24.010Z,95515.60
2022-12-01T17:12:51.368Z,95514.00
2022-12-01T17:15:18.294Z,95511.20
2022-12-01T17:17:46.159Z,95517.80
2022-12-01T17:20:13.416Z,95512.60
2022-12-01T17:22:40.097Z,95518.60
2022-12-01T17:25:09.875Z,95517.60
2022-12-01T17:27:38.048Z,95516.20
2022-12-01T17:30:07.160Z,95512.20
2022-12-01T17:32:34.496Z,95516.00
2022-12-01T17:35:01.145Z,95511.80
2022-12-01T17:37:27.927Z,95513.40
2022-12-01T17:39:54.812Z,95516.80
2022-12-01T17:42:21.944Z,95512.20
2022-12-01T17:44:48.949Z,95515.60
2022-12-01T17:47:16.009Z,95519.00
2022-12-01T17:49:42.619Z,95521.80
2022-12-01T17:52:09.344Z,95522.80
2022-12-01T17:54:36.008Z,95523.20
2022-12-01T17:57:02.674Z,95522.80
2022-12-01T17:59:29.352Z,95522.80
2022-12-01T18:01:56.034Z,95517.40
2022-12-01T18:04:22.717Z,95519.60
2022-12-01T18:06:54.025Z,95519.80
2022-12-01T18:09:22.137Z,95519.60
2022-12-01T18:11:49.354Z,95519.40
2022-12-01T18:14:19.095Z,95516.20
2022-12-01T18:16:46.055Z,95520.00
2022-12-01T18:19:13.208Z,95524.40
2022-12-01T18:21:40.459Z,95522.40
2022-12-01T18:24:10.334Z,95527.60
2022-12-01T18:26:39.951Z,95529.60
2022-12-01T18:29:15.947Z,95532.80
2022-12-01T18:31:43.291Z,95534.00
2022-12-01T18:34:11.287Z,95530.00
2022-12-01T18:36:41.156Z,95533.20
2022-12-01T18:39:09.623Z,95535.40
2022-12-01T18:41:36.743Z,95528.60
2022-12-01T18:44:03.986Z,95530.00
2022-12-01T18:46:31.689Z,95533.20
2022-12-01T18:49:02.865Z,95533.00
2022-12-01T18:51:32.829Z,95530.20
2022-12-01T18:54:01.918Z,95530.40
2022-12-01T18:56:29.468Z,95529.80
2022-12-01T18:59:03.803Z,95530.20
2022-12-01T19:01:37.791Z,95527.80
2022-12-01T19:04:06.865Z,95527.00
2022-12-01T19:06:37.430Z,95525.40
2022-12-01T19:09:07.180Z,95529.40
2022-12-01T19:11:33.737Z,95534.80
2022-12-01T19:14:00.565Z,95532.80
2022-12-01T19:16:27.776Z,95531.60
2022-12-01T19:18:54.603Z,95532.60
2022-12-01T19:21:21.419Z,95532.00
2022-12-01T19:23:49.884Z,95528.00
2022-12-01T19:26:19.669Z,95531.20
2022-12-01T19:28:47.942Z,95530.60
2022-12-01T19:31:19.899Z,95529.60
2022-12-01T19:33:47.314Z,95534.00
2022-12-01T19:36:19.282Z,95528.80
2022-12-01T19:38:46.950Z,95531.00
2022-12-01T19:41:15.502Z,95534.40
2022-12-01T19:43:43.037Z,95534.20
2022-12-01T19:46:13.961Z,95531.80
2022-12-01T19:48:41.767Z,95536.40
2022-12-01T19:51:20.643Z,95535.20
2022-12-01T19:53:47.892Z,95534.80
2022-12-01T19:56:14.881Z,95533.00
2022-12-01T19:58:42.247Z,95536.40
2022-12-01T20:01:12.673Z,95539.00
2022-12-01T20:03:42.037Z,95537.60
2022-12-01T20:06:14.438Z,95534.60
2022-12-01T20:08:41.168Z,95533.60
2022-12-01T20:11:08.924Z,95530.00
2022-12-01T20:13:39.284Z,95529.60
2022-12-01T20:16:09.203Z,95527.20
2022-12-01T20:18:37.392Z,95526.40
2022-12-01T20:21:21.913Z,95528.60
2022-12-01T20:24:05.389Z,95529.40
2022-12-01T20:26:44.181Z,95530.00
2022-12-01T20:29:15.710Z,95533.80
2022-12-01T20:31:43.811Z,95527.00
2022-12-01T20:34:16.262Z,95534.60
2022-12-01T20:36:42.898Z,95528.80
2022-12-01T20:39:12.053Z,95530.60
2022-12-01T20:41:40.641Z,95531.20
2022-12-01T20:44:08.703Z,95532.40
2022-12-01T20:46:37.655Z,95532.40
2022-12-01T20:49:05.390Z,95533.00
2022-12-01T20:51:33.483Z,95530.40
2022-12-01T20:54:27.271Z,95527.60
2022-12-01T20:56:49.612Z,95534.40
2022-12-01T20:59:16.395Z,95528.20
2022-12-01T21:01:43.097Z,95531.40
2022-12-01T21:04:09.811Z,95529.60
2022-12-01T21:06:36.486Z,95529.80
2022-12-01T21:09:04.791Z,95528.00
2022-12-01T21:11:57.983Z,95530.60
2022-12-01T21:14:32.907Z,95520.60
2022-12-01T21:17:12.656Z,95519.60
2022-12-01T21:19:56.512Z,95523.40
2022-12-01T21:22:25.389Z,95524.00
2022-12-01T21:24:57.045Z,95523.20
2022-12-01T21:27:23.696Z,95517.80
2022-12-01T21:29:50.897Z,95520.80
2022-12-01T21:32:33.861Z,95520.60
2022-12-01T21:35:16.479Z,95519.00
2022-12-01T21:37:43.399Z,95516.80
2022-12-01T21:40:23.531Z,95513.80
2022-12-01T21:42:51.573Z,95515.00
2022-12-01T21:45:24.319Z,95513.80
2022-12-01T21:47:50.987Z,95515.80
2022-12-01T21:50:24.788Z,95520.60
2022-12-01T21:52:52.191Z,95517.00
2022-12-01T21:55:18.739Z,95514.60
2022-12-01T21:57:49.143Z,95514.00
2022-12-01T22:00:29.861Z,95514.60
2022-12-01T22:03:08.610Z,95512.80
2022-12-01T22:05:40.537Z,95515.20
2022-12-01T22:08:33.099Z,95514.80
2022-12-01T22:11:12.700Z,95512.20
2022-12-01T22:13:47.263Z,95509.40
2022-12-01T22:16:34.354Z,95506.20
2022-12-01T22:19:31.108Z,95501.40
2022-12-01T22:22:10.667Z,95502.20
2022-12-01T22:24:56.837Z,95503.00
2022-12-01T22:27:34.605Z,95505.60
2022-12-01T22:30:07.335Z,95507.40
2022-12-01T22:32:35.565Z,95504.40
2022-12-01T22:35:22.539Z,95503.40
2022-12-01T22:38:06.004Z,95500.20
2022-12-01T22:40:47.804Z,95498.60
2022-12-01T22:43:20.000Z,95499.20
2022-12-01T22:45:47.895Z,95496.00
2022-12-01T22:48:37.802Z,95491.40
2022-12-01T22:51:13.878Z,95488.60
2022-12-01T22:53:42.237Z,95487.20
2022-12-01T22:56:24.556Z,95486.80
2022-12-01T22:58:51.337Z,95487.20
2022-12-01T23:01:33.729Z,95478.20
2022-12-01T23:04:26.761Z,95480.00
2022-12-01T23:07:17.050Z,95479.20
2022-12-01T23:09:44.699Z,95477.80
2022-12-01T23:12:11.266Z,95476.60
2022-12-01T23:14:52.041Z,95476.80
2022-12-01T23:17:23.170Z,95472.60
2022-12-01T23:19:52.936Z,95477.60
2022-12-01T23:22:20.219Z,95474.60
2022-12-01T23:24:47.068Z,95476.20
2022-12-01T23:27:16.315Z,95474.40
2022-12-01T23:29:43.013Z,95470.40
2022-12-01T23:32:11.152Z,95466.00
2022-12-01T23:34:38.403Z,95463.00
2022-12-01T23:37:34.910Z,95462.60
2022-12-01T23:40:14.664Z,95457.40
2022-12-01T23:42:42.171Z,95455.00
2022-12-01T23:45:17.945Z,95447.60
2022-12-01T23:47:44.641Z,95450.60
2022-12-01T23:50:20.423Z,95446.00
2022-12-01T23:52:47.602Z,95447.60
2022-12-01T23:55:26.458Z,95444.20
2022-12-01T23:57:54.052Z,95443.40
